sensor_id;sensor_type;location;lat;lon;timestamp;P1;durP1;ratioP1;P2;durP2;ratioP2
38034;SDS011;23841;48.524;1.342;2022-10-13T00:00:21;6.40;;;2.78;;
38034;SDS011;23841;48.524;1.342;2022-10-13T00:02:46;7.13;;;2.92;;
38034;SDS011;23841;48.524;1.342;2022-10-13T00:05:11;6.97;;;3.08;;
38034;SDS011;23841;48.524;1.342;2022-10-13T00:07:36;5.57;;;2.50;;
38034;SDS011;23841;48.524;1.342;2022-10-13T00:10:02;4.90;;;2.60;;
38034;SDS011;23841;48.524;1.342;2022-10-13T00:12:28;5.10;;;2.50;;
38034;SDS011;23841;48.524;1.342;2022-10-13T00:14:56;6.40;;;2.78;;
38034;SDS011;23841;48.524;1.342;2022-10-13T00:17:22;5.22;;;2.95;;
38034;SDS011;23841;48.524;1.342;2022-10-13T00:19:48;9.60;;;2.65;;
38034;SDS011;23841;48.524;1.342;2022-10-13T00:22:13;12.00;;;3.60;;
38034;SDS011;23841;48.524;1.342;2022-10-13T00:24:38;6.10;;;3.03;;
38034;SDS011;23841;48.524;1.342;2022-10-13T00:27:04;8.90;;;3.13;;
38034;SDS011;23841;48.524;1.342;2022-10-13T00:29:29;6.82;;;2.67;;
38034;SDS011;23841;48.524;1.342;2022-10-13T00:31:54;5.32;;;2.92;;
38034;SDS011;23841;48.524;1.342;2022-10-13T00:34:19;6.63;;;2.90;;
38034;SDS011;23841;48.524;1.342;2022-10-13T00:36:45;6.65;;;2.95;;
38034;SDS011;23841;48.524;1.342;2022-10-13T00:39:11;6.72;;;2.78;;
38034;SDS011;23841;48.524;1.342;2022-10-13T00:41:36;5.80;;;3.05;;
38034;SDS011;23841;48.524;1.342;2022-10-13T00:44:05;6.30;;;2.97;;
38034;SDS011;23841;48.524;1.342;2022-10-13T00:46:35;9.07;;;3.00;;
38034;SDS011;23841;48.524;1.342;2022-10-13T00:49:02;4.63;;;2.72;;
38034;SDS011;23841;48.524;1.342;2022-10-13T00:51:29;6.18;;;3.10;;
38034;SDS011;23841;48.524;1.342;2022-10-13T00:53:55;6.40;;;3.17;;
38034;SDS011;23841;48.524;1.342;2022-10-13T00:56:21;6.65;;;2.78;;
38034;SDS011;23841;48.524;1.342;2022-10-13T00:58:47;7.65;;;3.00;;
38034;SDS011;23841;48.524;1.342;2022-10-13T01:01:13;6.20;;;2.85;;
38034;SDS011;23841;48.524;1.342;2022-10-13T01:03:38;5.03;;;2.50;;
38034;SDS011;23841;48.524;1.342;2022-10-13T01:06:03;6.32;;;2.78;;
38034;SDS011;23841;48.524;1.342;2022-10-13T01:08:30;7.70;;;2.65;;
38034;SDS011;23841;48.524;1.342;2022-10-13T01:10:58;7.47;;;2.65;;
38034;SDS011;23841;48.524;1.342;2022-10-13T01:13:42;7.40;;;2.92;;
38034;SDS011;23841;48.524;1.342;2022-10-13T01:16:18;6.88;;;3.10;;
38034;SDS011;23841;48.524;1.342;2022-10-13T01:18:47;18.35;;;3.65;;
38034;SDS011;23841;48.524;1.342;2022-10-13T01:21:22;5.25;;;2.92;;
38034;SDS011;23841;48.524;1.342;2022-10-13T01:34:15;7.38;;;3.17;;
38034;SDS011;23841;48.524;1.342;2022-10-13T01:39:12;9.05;;;3.38;;
38034;SDS011;23841;48.524;1.342;2022-10-13T01:41:41;6.30;;;2.97;;
38034;SDS011;23841;48.524;1.342;2022-10-13T01:44:16;4.68;;;2.50;;
38034;SDS011;23841;48.524;1.342;2022-10-13T01:46:44;6.80;;;3.38;;
38034;SDS011;23841;48.524;1.342;2022-10-13T01:49:11;5.53;;;2.85;;
38034;SDS011;23841;48.524;1.342;2022-10-13T01:51:38;9.98;;;3.55;;
38034;SDS011;23841;48.524;1.342;2022-10-13T01:54:03;9.32;;;3.30;;
38034;SDS011;23841;48.524;1.342;2022-10-13T01:56:28;7.35;;;3.08;;
38034;SDS011;23841;48.524;1.342;2022-10-13T01:58:54;6.10;;;2.97;;
38034;SDS011;23841;48.524;1.342;2022-10-13T02:06:31;6.63;;;3.53;;
38034;SDS011;23841;48.524;1.342;2022-10-13T02:11:24;8.98;;;3.30;;
38034;SDS011;23841;48.524;1.342;2022-10-13T02:16:19;6.72;;;3.88;;
38034;SDS011;23841;48.524;1.342;2022-10-13T02:18:47;6.68;;;3.08;;
38034;SDS011;23841;48.524;1.342;2022-10-13T02:21:13;7.43;;;2.88;;
38034;SDS011;23841;48.524;1.342;2022-10-13T02:23:40;7.68;;;3.00;;
38034;SDS011;23841;48.524;1.342;2022-10-13T02:26:06;6.25;;;3.15;;
38034;SDS011;23841;48.524;1.342;2022-10-13T02:28:33;8.23;;;3.38;;
38034;SDS011;23841;48.524;1.342;2022-10-13T02:31:00;5.03;;;3.17;;
38034;SDS011;23841;48.524;1.342;2022-10-13T02:33:26;7.88;;;3.35;;
38034;SDS011;23841;48.524;1.342;2022-10-13T02:35:51;7.47;;;3.13;;
38034;SDS011;23841;48.524;1.342;2022-10-13T02:38:16;6.82;;;3.00;;
38034;SDS011;23841;48.524;1.342;2022-10-13T02:40:42;7.20;;;3.25;;
38034;SDS011;23841;48.524;1.342;2022-10-13T02:43:07;5.80;;;2.85;;
38034;SDS011;23841;48.524;1.342;2022-10-13T02:45:32;7.93;;;3.75;;
38034;SDS011;23841;48.524;1.342;2022-10-13T02:47:57;7.40;;;3.35;;
38034;SDS011;23841;48.524;1.342;2022-10-13T02:50:23;6.63;;;3.35;;
38034;SDS011;23841;48.524;1.342;2022-10-13T02:52:48;10.38;;;4.57;;
38034;SDS011;23841;48.524;1.342;2022-10-13T02:55:13;10.20;;;3.83;;
38034;SDS011;23841;48.524;1.342;2022-10-13T02:57:39;7.15;;;3.15;;
38034;SDS011;23841;48.524;1.342;2022-10-13T03:00:05;8.52;;;3.80;;
38034;SDS011;23841;48.524;1.342;2022-10-13T03:02:31;10.98;;;3.65;;
38034;SDS011;23841;48.524;1.342;2022-10-13T03:04:56;7.22;;;3.10;;
38034;SDS011;23841;48.524;1.342;2022-10-13T03:07:21;10.23;;;3.60;;
38034;SDS011;23841;48.524;1.342;2022-10-13T03:09:47;7.40;;;3.20;;
38034;SDS011;23841;48.524;1.342;2022-10-13T03:12:12;5.75;;;3.40;;
38034;SDS011;23841;48.524;1.342;2022-10-13T03:14:37;7.03;;;3.22;;
38034;SDS011;23841;48.524;1.342;2022-10-13T03:17:03;7.35;;;3.50;;
38034;SDS011;23841;48.524;1.342;2022-10-13T03:19:28;8.48;;;4.13;;
38034;SDS011;23841;48.524;1.342;2022-10-13T03:21:54;5.55;;;3.25;;
38034;SDS011;23841;48.524;1.342;2022-10-13T03:24:20;6.55;;;3.30;;
38034;SDS011;23841;48.524;1.342;2022-10-13T03:26:45;10.27;;;3.22;;
38034;SDS011;23841;48.524;1.342;2022-10-13T03:29:14;11.27;;;3.40;;
38034;SDS011;23841;48.524;1.342;2022-10-13T03:31:40;8.38;;;3.60;;
38034;SDS011;23841;48.524;1.342;2022-10-13T03:34:05;9.70;;;3.92;;
38034;SDS011;23841;48.524;1.342;2022-10-13T03:36:31;8.20;;;3.95;;
38034;SDS011;23841;48.524;1.342;2022-10-13T03:38:56;5.82;;;3.22;;
38034;SDS011;23841;48.524;1.342;2022-10-13T03:41:21;8.10;;;3.55;;
38034;SDS011;23841;48.524;1.342;2022-10-13T03:43:47;6.90;;;2.67;;
38034;SDS011;23841;48.524;1.342;2022-10-13T03:46:13;5.75;;;3.22;;
38034;SDS011;23841;48.524;1.342;2022-10-13T03:48:38;9.43;;;3.83;;
38034;SDS011;23841;48.524;1.342;2022-10-13T03:51:05;8.18;;;3.70;;
38034;SDS011;23841;48.524;1.342;2022-10-13T03:53:30;10.23;;;3.70;;
38034;SDS011;23841;48.524;1.342;2022-10-13T03:55:56;6.53;;;3.00;;
38034;SDS011;23841;48.524;1.342;2022-10-13T03:58:22;6.82;;;3.30;;
38034;SDS011;23841;48.524;1.342;2022-10-13T04:00:47;6.70;;;3.10;;
38034;SDS011;23841;48.524;1.342;2022-10-13T04:03:13;10.35;;;3.38;;
38034;SDS011;23841;48.524;1.342;2022-10-13T04:05:38;8.18;;;2.95;;
38034;SDS011;23841;48.524;1.342;2022-10-13T04:08:04;8.13;;;3.60;;
38034;SDS011;23841;48.524;1.342;2022-10-13T04:10:29;7.20;;;3.28;;
38034;SDS011;23841;48.524;1.342;2022-10-13T04:12:54;7.47;;;3.63;;
38034;SDS011;23841;48.524;1.342;2022-10-13T04:15:20;9.18;;;3.45;;
38034;SDS011;23841;48.524;1.342;2022-10-13T04:17:45;6.38;;;3.03;;
38034;SDS011;23841;48.524;1.342;2022-10-13T04:20:10;8.57;;;3.50;;
38034;SDS011;23841;48.524;1.342;2022-10-13T04:22:35;6.03;;;3.25;;
38034;SDS011;23841;48.524;1.342;2022-10-13T04:25:01;6.13;;;3.30;;
38034;SDS011;23841;48.524;1.342;2022-10-13T04:27:26;7.55;;;3.55;;
38034;SDS011;23841;48.524;1.342;2022-10-13T04:29:52;8.07;;;3.35;;
38034;SDS011;23841;48.524;1.342;2022-10-13T04:32:17;7.68;;;3.88;;
38034;SDS011;23841;48.524;1.342;2022-10-13T04:34:42;8.98;;;3.45;;
38034;SDS011;23841;48.524;1.342;2022-10-13T04:37:07;6.20;;;2.75;;
38034;SDS011;23841;48.524;1.342;2022-10-13T04:39:33;8.07;;;3.42;;
38034;SDS011;23841;48.524;1.342;2022-10-13T04:41:58;6.45;;;3.35;;
38034;SDS011;23841;48.524;1.342;2022-10-13T04:44:23;8.10;;;3.45;;
38034;SDS011;23841;48.524;1.342;2022-10-13T04:46:48;9.35;;;3.17;;
38034;SDS011;23841;48.524;1.342;2022-10-13T04:49:14;7.65;;;3.20;;
38034;SDS011;23841;48.524;1.342;2022-10-13T04:51:40;5.63;;;3.08;;
38034;SDS011;23841;48.524;1.342;2022-10-13T04:54:05;6.18;;;2.92;;
38034;SDS011;23841;48.524;1.342;2022-10-13T04:56:30;7.55;;;2.97;;
38034;SDS011;23841;48.524;1.342;2022-10-13T04:58:55;7.28;;;3.28;;
38034;SDS011;23841;48.524;1.342;2022-10-13T05:01:24;6.95;;;2.80;;
38034;SDS011;23841;48.524;1.342;2022-10-13T05:03:50;6.88;;;2.80;;
38034;SDS011;23841;48.524;1.342;2022-10-13T05:06:17;8.85;;;3.38;;
38034;SDS011;23841;48.524;1.342;2022-10-13T05:08:43;4.90;;;2.45;;
38034;SDS011;23841;48.524;1.342;2022-10-13T05:11:09;8.05;;;2.90;;
38034;SDS011;23841;48.524;1.342;2022-10-13T05:13:34;4.13;;;2.35;;
38034;SDS011;23841;48.524;1.342;2022-10-13T05:16:04;5.55;;;2.47;;
38034;SDS011;23841;48.524;1.342;2022-10-13T05:18:29;6.47;;;2.92;;
38034;SDS011;23841;48.524;1.342;2022-10-13T05:20:54;5.63;;;2.38;;
38034;SDS011;23841;48.524;1.342;2022-10-13T05:23:19;5.75;;;2.33;;
38034;SDS011;23841;48.524;1.342;2022-10-13T05:25:45;4.38;;;2.20;;
38034;SDS011;23841;48.524;1.342;2022-10-13T05:28:10;7.32;;;2.40;;
38034;SDS011;23841;48.524;1.342;2022-10-13T05:30:35;3.47;;;2.20;;
38034;SDS011;23841;48.524;1.342;2022-10-13T05:33:00;4.93;;;2.42;;
38034;SDS011;23841;48.524;1.342;2022-10-13T05:35:26;5.18;;;1.98;;
38034;SDS011;23841;48.524;1.342;2022-10-13T05:37:51;4.55;;;2.45;;
38034;SDS011;23841;48.524;1.342;2022-10-13T05:40:17;5.43;;;1.90;;
38034;SDS011;23841;48.524;1.342;2022-10-13T05:42:44;4.55;;;2.20;;
38034;SDS011;23841;48.524;1.342;2022-10-13T05:45:10;3.10;;;1.63;;
38034;SDS011;23841;48.524;1.342;2022-10-13T05:47:35;4.97;;;2.05;;
38034;SDS011;23841;48.524;1.342;2022-10-13T05:50:00;6.05;;;2.35;;
38034;SDS011;23841;48.524;1.342;2022-10-13T05:52:26;4.32;;;1.83;;
38034;SDS011;23841;48.524;1.342;2022-10-13T05:54:55;4.50;;;1.83;;
38034;SDS011;23841;48.524;1.342;2022-10-13T06:00:20;4.13;;;1.80;;
38034;SDS011;23841;48.524;1.342;2022-10-13T06:02:49;5.68;;;2.22;;
38034;SDS011;23841;48.524;1.342;2022-10-13T06:05:16;3.67;;;1.80;;
38034;SDS011;23841;48.524;1.342;2022-10-13T06:07:42;3.28;;;1.60;;
38034;SDS011;23841;48.524;1.342;2022-10-13T06:10:09;4.40;;;1.67;;
38034;SDS011;23841;48.524;1.342;2022-10-13T06:12:34;4.75;;;1.98;;
38034;SDS011;23841;48.524;1.342;2022-10-13T06:15:00;4.07;;;1.80;;
38034;SDS011;23841;48.524;1.342;2022-10-13T06:17:25;4.22;;;1.80;;
38034;SDS011;23841;48.524;1.342;2022-10-13T06:19:50;7.68;;;2.00;;
38034;SDS011;23841;48.524;1.342;2022-10-13T06:22:16;5.82;;;1.88;;
38034;SDS011;23841;48.524;1.342;2022-10-13T06:24:41;5.57;;;1.80;;
38034;SDS011;23841;48.524;1.342;2022-10-13T06:27:07;4.07;;;1.80;;
38034;SDS011;23841;48.524;1.342;2022-10-13T06:29:32;3.20;;;1.48;;
38034;SDS011;23841;48.524;1.342;2022-10-13T06:31:57;6.35;;;1.60;;
38034;SDS011;23841;48.524;1.342;2022-10-13T06:34:23;3.70;;;1.65;;
38034;SDS011;23841;48.524;1.342;2022-10-13T06:36:48;5.13;;;1.60;;
38034;SDS011;23841;48.524;1.342;2022-10-13T06:39:13;4.38;;;1.88;;
38034;SDS011;23841;48.524;1.342;2022-10-13T06:41:39;5.65;;;2.05;;
38034;SDS011;23841;48.524;1.342;2022-10-13T06:44:04;4.45;;;1.60;;
38034;SDS011;23841;48.524;1.342;2022-10-13T06:46:29;6.88;;;1.63;;
38034;SDS011;23841;48.524;1.342;2022-10-13T06:48:54;5.60;;;1.67;;
38034;SDS011;23841;48.524;1.342;2022-10-13T06:51:20;4.82;;;1.40;;
38034;SDS011;23841;48.524;1.342;2022-10-13T06:53:45;4.95;;;1.83;;
38034;SDS011;23841;48.524;1.342;2022-10-13T06:56:10;4.53;;;1.90;;
38034;SDS011;23841;48.524;1.342;2022-10-13T06:58:36;2.90;;;1.50;;
38034;SDS011;23841;48.524;1.342;2022-10-13T07:01:01;3.92;;;1.70;;
38034;SDS011;23841;48.524;1.342;2022-10-13T07:03:26;3.83;;;1.58;;
38034;SDS011;23841;48.524;1.342;2022-10-13T07:05:52;4.70;;;1.60;;
38034;SDS011;23841;48.524;1.342;2022-10-13T07:08:17;4.15;;;1.83;;
38034;SDS011;23841;48.524;1.342;2022-10-13T07:10:43;6.63;;;2.88;;
38034;SDS011;23841;48.524;1.342;2022-10-13T07:13:08;2.90;;;1.50;;
38034;SDS011;23841;48.524;1.342;2022-10-13T07:15:36;4.20;;;1.75;;
38034;SDS011;23841;48.524;1.342;2022-10-13T07:18:01;8.90;;;1.95;;
38034;SDS011;23841;48.524;1.342;2022-10-13T07:20:26;4.40;;;1.42;;
38034;SDS011;23841;48.524;1.342;2022-10-13T07:22:52;4.53;;;1.65;;
38034;SDS011;23841;48.524;1.342;2022-10-13T07:25:17;5.80;;;1.88;;
38034;SDS011;23841;48.524;1.342;2022-10-13T07:27:43;4.35;;;1.58;;
38034;SDS011;23841;48.524;1.342;2022-10-13T07:30:09;5.75;;;1.70;;
38034;SDS011;23841;48.524;1.342;2022-10-13T07:32:34;4.93;;;1.60;;
38034;SDS011;23841;48.524;1.342;2022-10-13T07:34:59;5.22;;;1.70;;
38034;SDS011;23841;48.524;1.342;2022-10-13T07:37:25;4.60;;;1.60;;
38034;SDS011;23841;48.524;1.342;2022-10-13T07:39:51;4.20;;;1.63;;
38034;SDS011;23841;48.524;1.342;2022-10-13T07:42:16;6.18;;;2.03;;
38034;SDS011;23841;48.524;1.342;2022-10-13T07:44:42;5.43;;;1.65;;
38034;SDS011;23841;48.524;1.342;2022-10-13T07:47:07;6.07;;;1.92;;
38034;SDS011;23841;48.524;1.342;2022-10-13T07:49:33;4.10;;;1.55;;
38034;SDS011;23841;48.524;1.342;2022-10-13T07:51:58;7.07;;;1.40;;
38034;SDS011;23841;48.524;1.342;2022-10-13T07:54:23;5.45;;;1.85;;
38034;SDS011;23841;48.524;1.342;2022-10-13T07:56:51;3.53;;;1.70;;
38034;SDS011;23841;48.524;1.342;2022-10-13T07:59:17;5.68;;;1.40;;
38034;SDS011;23841;48.524;1.342;2022-10-13T08:01:42;4.15;;;1.50;;
38034;SDS011;23841;48.524;1.342;2022-10-13T08:04:08;4.15;;;1.70;;
38034;SDS011;23841;48.524;1.342;2022-10-13T08:06:33;3.55;;;1.70;;
38034;SDS011;23841;48.524;1.342;2022-10-13T08:08:58;5.32;;;2.00;;
38034;SDS011;23841;48.524;1.342;2022-10-13T08:11:24;3.80;;;1.25;;
38034;SDS011;23841;48.524;1.342;2022-10-13T08:13:50;3.58;;;1.30;;
38034;SDS011;23841;48.524;1.342;2022-10-13T08:16:16;3.15;;;1.30;;
38034;SDS011;23841;48.524;1.342;2022-10-13T08:18:42;4.97;;;1.92;;
38034;SDS011;23841;48.524;1.342;2022-10-13T08:21:09;5.40;;;1.60;;
38034;SDS011;23841;48.524;1.342;2022-10-13T08:23:36;5.75;;;1.48;;
38034;SDS011;23841;48.524;1.342;2022-10-13T08:26:02;6.05;;;1.52;;
38034;SDS011;23841;48.524;1.342;2022-10-13T08:28:27;3.85;;;1.45;;
38034;SDS011;23841;48.524;1.342;2022-10-13T08:30:53;6.38;;;1.38;;
38034;SDS011;23841;48.524;1.342;2022-10-13T08:33:21;3.60;;;1.27;;
38034;SDS011;23841;48.524;1.342;2022-10-13T08:35:46;4.22;;;1.50;;
38034;SDS011;23841;48.524;1.342;2022-10-13T08:38:11;4.85;;;1.40;;
38034;SDS011;23841;48.524;1.342;2022-10-13T08:40:37;2.35;;;1.10;;
38034;SDS011;23841;48.524;1.342;2022-10-13T08:43:10;5.68;;;1.30;;
38034;SDS011;23841;48.524;1.342;2022-10-13T08:48:04;4.10;;;1.40;;
38034;SDS011;23841;48.524;1.342;2022-10-13T08:50:33;10.73;;;2.08;;
38034;SDS011;23841;48.524;1.342;2022-10-13T08:53:00;2.80;;;1.33;;
38034;SDS011;23841;48.524;1.342;2022-10-13T08:55:40;5.50;;;1.85;;
38034;SDS011;23841;48.524;1.342;2022-10-13T08:58:10;5.28;;;1.45;;
38034;SDS011;23841;48.524;1.342;2022-10-13T09:00:36;4.68;;;1.48;;
38034;SDS011;23841;48.524;1.342;2022-10-13T09:05:51;4.18;;;1.40;;
38034;SDS011;23841;48.524;1.342;2022-10-13T09:08:20;3.72;;;1.10;;
38034;SDS011;23841;48.524;1.342;2022-10-13T09:10:50;3.42;;;1.33;;
38034;SDS011;23841;48.524;1.342;2022-10-13T09:13:16;3.35;;;1.23;;
38034;SDS011;23841;48.524;1.342;2022-10-13T09:15:42;3.25;;;1.30;;
38034;SDS011;23841;48.524;1.342;2022-10-13T09:18:10;2.85;;;1.38;;
38034;SDS011;23841;48.524;1.342;2022-10-13T09:20:35;4.53;;;1.55;;
38034;SDS011;23841;48.524;1.342;2022-10-13T09:25:27;3.25;;;1.50;;
38034;SDS011;23841;48.524;1.342;2022-10-13T09:27:56;4.00;;;1.45;;
38034;SDS011;23841;48.524;1.342;2022-10-13T09:35:36;3.85;;;1.58;;
38034;SDS011;23841;48.524;1.342;2022-10-13T09:38:05;3.33;;;1.45;;
38034;SDS011;23841;48.524;1.342;2022-10-13T09:40:33;5.43;;;1.58;;
38034;SDS011;23841;48.524;1.342;2022-10-13T09:43:00;2.58;;;1.30;;
38034;SDS011;23841;48.524;1.342;2022-10-13T09:45:25;8.82;;;2.13;;
38034;SDS011;23841;48.524;1.342;2022-10-13T09:50:22;3.92;;;1.60;;
38034;SDS011;23841;48.524;1.342;2022-10-13T09:52:47;5.28;;;1.58;;
38034;SDS011;23841;48.524;1.342;2022-10-13T09:55:26;5.38;;;1.52;;
38034;SDS011;23841;48.524;1.342;2022-10-13T09:57:52;7.60;;;1.80;;
38034;SDS011;23841;48.524;1.342;2022-10-13T10:00:20;6.45;;;1.88;;
38034;SDS011;23841;48.524;1.342;2022-10-13T10:05:21;4.65;;;1.73;;
38034;SDS011;23841;48.524;1.342;2022-10-13T10:07:47;6.07;;;1.77;;
38034;SDS011;23841;48.524;1.342;2022-10-13T10:10:31;4.07;;;2.20;;
38034;SDS011;23841;48.524;1.342;2022-10-13T10:12:57;5.75;;;1.83;;
38034;SDS011;23841;48.524;1.342;2022-10-13T10:15:23;4.63;;;2.00;;
38034;SDS011;23841;48.524;1.342;2022-10-13T10:17:54;5.18;;;2.22;;
38034;SDS011;23841;48.524;1.342;2022-10-13T10:30:22;7.05;;;2.40;;
38034;SDS011;23841;48.524;1.342;2022-10-13T10:38:06;4.55;;;2.17;;
38034;SDS011;23841;48.524;1.342;2022-10-13T10:40:46;5.25;;;2.15;;
38034;SDS011;23841;48.524;1.342;2022-10-13T10:45:44;7.43;;;2.53;;
38034;SDS011;23841;48.524;1.342;2022-10-13T10:48:19;4.75;;;2.30;;
38034;SDS011;23841;48.524;1.342;2022-10-13T10:50:45;9.93;;;2.78;;
38034;SDS011;23841;48.524;1.342;2022-10-13T10:53:21;6.82;;;2.60;;
38034;SDS011;23841;48.524;1.342;2022-10-13T10:55:54;6.25;;;2.60;;
38034;SDS011;23841;48.524;1.342;2022-10-13T10:58:33;5.40;;;2.25;;
38034;SDS011;23841;48.524;1.342;2022-10-13T11:01:12;5.97;;;2.30;;
38034;SDS011;23841;48.524;1.342;2022-10-13T11:08:41;6.35;;;2.60;;
38034;SDS011;23841;48.524;1.342;2022-10-13T11:13:58;5.10;;;2.40;;
38034;SDS011;23841;48.524;1.342;2022-10-13T11:22:33;4.45;;;2.20;;
38034;SDS011;23841;48.524;1.342;2022-10-13T11:26:55;6.68;;;2.45;;
38034;SDS011;23841;48.524;1.342;2022-10-13T11:40:15;5.13;;;2.42;;
38034;SDS011;23841;48.524;1.342;2022-10-13T11:45:16;3.97;;;2.03;;
38034;SDS011;23841;48.524;1.342;2022-10-13T11:50:44;5.30;;;2.40;;
38034;SDS011;23841;48.524;1.342;2022-10-13T11:53:20;4.25;;;2.08;;
38034;SDS011;23841;48.524;1.342;2022-10-13T11:55:54;5.50;;;2.08;;
38034;SDS011;23841;48.524;1.342;2022-10-13T11:58:21;6.30;;;2.30;;
38034;SDS011;23841;48.524;1.342;2022-10-13T12:03:19;5.00;;;1.77;;
38034;SDS011;23841;48.524;1.342;2022-10-13T12:05:46;5.00;;;2.10;;
38034;SDS011;23841;48.524;1.342;2022-10-13T12:08:12;4.75;;;1.92;;
38034;SDS011;23841;48.524;1.342;2022-10-13T12:10:37;5.18;;;2.03;;
38034;SDS011;23841;48.524;1.342;2022-10-13T12:13:03;4.93;;;2.33;;
38034;SDS011;23841;48.524;1.342;2022-10-13T12:17:57;6.18;;;2.35;;
38034;SDS011;23841;48.524;1.342;2022-10-13T12:20:27;4.13;;;1.60;;
38034;SDS011;23841;48.524;1.342;2022-10-13T12:22:53;5.43;;;2.05;;
38034;SDS011;23841;48.524;1.342;2022-10-13T12:25:20;4.20;;;2.20;;
38034;SDS011;23841;48.524;1.342;2022-10-13T12:27:49;5.50;;;1.73;;
38034;SDS011;23841;48.524;1.342;2022-10-13T12:32:50;4.30;;;1.85;;
38034;SDS011;23841;48.524;1.342;2022-10-13T12:35:20;4.43;;;1.80;;
38034;SDS011;23841;48.524;1.342;2022-10-13T12:37:46;5.80;;;1.60;;
38034;SDS011;23841;48.524;1.342;2022-10-13T12:40:12;5.88;;;1.80;;
38034;SDS011;23841;48.524;1.342;2022-10-13T12:42:38;4.03;;;1.83;;
38034;SDS011;23841;48.524;1.342;2022-10-13T12:45:04;6.05;;;1.95;;
38034;SDS011;23841;48.524;1.342;2022-10-13T12:47:46;3.35;;;1.77;;
38034;SDS011;23841;48.524;1.342;2022-10-13T12:53:11;4.70;;;1.85;;
38034;SDS011;23841;48.524;1.342;2022-10-13T12:55:36;3.47;;;1.70;;
38034;SDS011;23841;48.524;1.342;2022-10-13T12:58:20;9.10;;;2.10;;
38034;SDS011;23841;48.524;1.342;2022-10-13T13:00:53;3.83;;;1.58;;
38034;SDS011;23841;48.524;1.342;2022-10-13T13:03:20;4.25;;;1.60;;
38034;SDS011;23841;48.524;1.342;2022-10-13T13:05:46;5.82;;;1.98;;
38034;SDS011;23841;48.524;1.342;2022-10-13T13:08:29;5.55;;;1.77;;
38034;SDS011;23841;48.524;1.342;2022-10-13T13:11:00;5.20;;;1.90;;
38034;SDS011;23841;48.524;1.342;2022-10-13T13:13:25;6.13;;;1.63;;
38034;SDS011;23841;48.524;1.342;2022-10-13T13:15:51;6.82;;;1.90;;
38034;SDS011;23841;48.524;1.342;2022-10-13T13:20:48;5.82;;;1.85;;
38034;SDS011;23841;48.524;1.342;2022-10-13T13:23:14;9.02;;;1.55;;
38034;SDS011;23841;48.524;1.342;2022-10-13T13:25:42;6.57;;;1.75;;
38034;SDS011;23841;48.524;1.342;2022-10-13T13:28:11;15.50;;;5.18;;
38034;SDS011;23841;48.524;1.342;2022-10-13T13:30:37;116.53;;;36.80;;
38034;SDS011;23841;48.524;1.342;2022-10-13T13:33:02;83.25;;;28.27;;
38034;SDS011;23841;48.524;1.342;2022-10-13T13:35:27;78.97;;;25.83;;
38034;SDS011;23841;48.524;1.342;2022-10-13T13:37:53;72.13;;;26.88;;
38034;SDS011;23841;48.524;1.342;2022-10-13T13:40:22;75.78;;;25.65;;
38034;SDS011;23841;48.524;1.342;2022-10-13T13:42:48;69.90;;;20.70;;
38034;SDS011;23841;48.524;1.342;2022-10-13T13:45:14;46.33;;;15.55;;
38034;SDS011;23841;48.524;1.342;2022-10-13T13:47:39;41.30;;;14.40;;
38034;SDS011;23841;48.524;1.342;2022-10-13T13:50:08;36.10;;;12.20;;
38034;SDS011;23841;48.524;1.342;2022-10-13T13:52:37;26.90;;;9.93;;
38034;SDS011;23841;48.524;1.342;2022-10-13T13:55:02;28.35;;;8.75;;
38034;SDS011;23841;48.524;1.342;2022-10-13T13:57:28;26.73;;;7.70;;
38034;SDS011;23841;48.524;1.342;2022-10-13T13:59:53;22.52;;;6.03;;
38034;SDS011;23841;48.524;1.342;2022-10-13T14:02:19;15.70;;;5.80;;
38034;SDS011;23841;48.524;1.342;2022-10-13T14:04:45;12.45;;;4.68;;
38034;SDS011;23841;48.524;1.342;2022-10-13T14:07:10;14.73;;;4.72;;
38034;SDS011;23841;48.524;1.342;2022-10-13T14:09:36;11.75;;;4.18;;
38034;SDS011;23841;48.524;1.342;2022-10-13T14:12:02;9.82;;;4.18;;
38034;SDS011;23841;48.524;1.342;2022-10-13T14:14:30;9.10;;;3.15;;
38034;SDS011;23841;48.524;1.342;2022-10-13T14:16:56;6.63;;;2.97;;
38034;SDS011;23841;48.524;1.342;2022-10-13T14:19:21;7.13;;;2.90;;
38034;SDS011;23841;48.524;1.342;2022-10-13T14:21:47;6.22;;;2.85;;
38034;SDS011;23841;48.524;1.342;2022-10-13T14:24:12;6.78;;;2.72;;
38034;SDS011;23841;48.524;1.342;2022-10-13T14:26:37;6.70;;;3.42;;
38034;SDS011;23841;48.524;1.342;2022-10-13T14:29:03;6.88;;;3.03;;
38034;SDS011;23841;48.524;1.342;2022-10-13T14:31:28;6.63;;;2.60;;
38034;SDS011;23841;48.524;1.342;2022-10-13T14:33:54;5.47;;;2.33;;
38034;SDS011;23841;48.524;1.342;2022-10-13T14:36:20;6.22;;;2.65;;
38034;SDS011;23841;48.524;1.342;2022-10-13T14:38:45;5.55;;;2.10;;
38034;SDS011;23841;48.524;1.342;2022-10-13T14:41:13;4.75;;;1.85;;
38034;SDS011;23841;48.524;1.342;2022-10-13T14:43:41;6.53;;;2.00;;
38034;SDS011;23841;48.524;1.342;2022-10-13T14:46:06;6.45;;;1.98;;
38034;SDS011;23841;48.524;1.342;2022-10-13T14:48:32;7.82;;;2.35;;
38034;SDS011;23841;48.524;1.342;2022-10-13T14:50:58;6.28;;;2.45;;
38034;SDS011;23841;48.524;1.342;2022-10-13T14:53:24;4.55;;;2.10;;
38034;SDS011;23841;48.524;1.342;2022-10-13T14:55:51;6.57;;;2.15;;
38034;SDS011;23841;48.524;1.342;2022-10-13T14:58:16;5.53;;;2.38;;
38034;SDS011;23841;48.524;1.342;2022-10-13T15:00:41;5.60;;;2.25;;
38034;SDS011;23841;48.524;1.342;2022-10-13T15:03:07;4.28;;;2.08;;
38034;SDS011;23841;48.524;1.342;2022-10-13T15:05:32;4.43;;;2.45;;
38034;SDS011;23841;48.524;1.342;2022-10-13T15:07:57;5.15;;;2.30;;
38034;SDS011;23841;48.524;1.342;2022-10-13T15:10:23;4.07;;;1.90;;
38034;SDS011;23841;48.524;1.342;2022-10-13T15:12:48;6.15;;;2.40;;
38034;SDS011;23841;48.524;1.342;2022-10-13T15:15:13;4.78;;;2.15;;
38034;SDS011;23841;48.524;1.342;2022-10-13T15:17:39;5.18;;;2.05;;
38034;SDS011;23841;48.524;1.342;2022-10-13T15:20:04;4.38;;;2.17;;
38034;SDS011;23841;48.524;1.342;2022-10-13T15:22:30;4.75;;;2.10;;
38034;SDS011;23841;48.524;1.342;2022-10-13T15:24:55;3.75;;;1.85;;
38034;SDS011;23841;48.524;1.342;2022-10-13T15:27:21;7.18;;;3.63;;
38034;SDS011;23841;48.524;1.342;2022-10-13T15:29:46;5.03;;;2.75;;
38034;SDS011;23841;48.524;1.342;2022-10-13T15:32:12;4.70;;;2.30;;
38034;SDS011;23841;48.524;1.342;2022-10-13T15:34:41;3.90;;;2.40;;
38034;SDS011;23841;48.524;1.342;2022-10-13T15:37:07;5.88;;;2.55;;
38034;SDS011;23841;48.524;1.342;2022-10-13T15:39:32;4.90;;;2.33;;
38034;SDS011;23841;48.524;1.342;2022-10-13T15:41:57;6.38;;;2.92;;
38034;SDS011;23841;48.524;1.342;2022-10-13T15:44:23;4.97;;;2.45;;
38034;SDS011;23841;48.524;1.342;2022-10-13T15:46:49;6.85;;;2.70;;
38034;SDS011;23841;48.524;1.342;2022-10-13T15:49:14;6.47;;;2.55;;
38034;SDS011;23841;48.524;1.342;2022-10-13T15:51:39;4.85;;;2.25;;
38034;SDS011;23841;48.524;1.342;2022-10-13T15:54:04;8.82;;;2.83;;
38034;SDS011;23841;48.524;1.342;2022-10-13T15:56:30;7.25;;;2.40;;
38034;SDS011;23841;48.524;1.342;2022-10-13T15:58:55;4.32;;;2.40;;
38034;SDS011;23841;48.524;1.342;2022-10-13T16:01:20;5.32;;;2.65;;
38034;SDS011;23841;48.524;1.342;2022-10-13T16:03:45;5.85;;;2.60;;
38034;SDS011;23841;48.524;1.342;2022-10-13T16:06:11;4.00;;;2.22;;
38034;SDS011;23841;48.524;1.342;2022-10-13T16:08:37;9.68;;;2.90;;
38034;SDS011;23841;48.524;1.342;2022-10-13T16:11:10;17.50;;;3.03;;
38034;SDS011;23841;48.524;1.342;2022-10-13T16:13:36;9.85;;;2.95;;
38034;SDS011;23841;48.524;1.342;2022-10-13T16:16:01;10.45;;;2.50;;
38034;SDS011;23841;48.524;1.342;2022-10-13T16:18:28;11.13;;;3.67;;
38034;SDS011;23841;48.524;1.342;2022-10-13T16:23:56;7.43;;;2.80;;
38034;SDS011;23841;48.524;1.342;2022-10-13T16:26:22;8.40;;;2.78;;
38034;SDS011;23841;48.524;1.342;2022-10-13T16:28:48;8.75;;;3.25;;
38034;SDS011;23841;48.524;1.342;2022-10-13T16:31:15;4.78;;;2.25;;